sensor_id;sensor_type;location;lat;lon;timestamp;pressure;altitude;pressure_sealevel;temperature;humidity
79481;BME280;68944;48.262;14.208;2023-05-10T00:00:11;97669.38;;;13.72;53.40
79481;BME280;68944;48.262;14.208;2023-05-10T00:02:40;97661.63;;;13.70;53.25
79481;BME280;68944;48.262;14.208;2023-05-10T00:05:06;97670.16;;;13.67;52.99
79481;BME280;68944;48.262;14.208;2023-05-10T00:07:32;97672.00;;;13.67;53.15
79481;BME280;68944;48.262;14.208;2023-05-10T00:09:57;97662.09;;;13.57;53.42
79481;BME280;68944;48.262;14.208;2023-05-10T00:12:23;97673.53;;;13.57;53.17
79481;BME280;68944;48.262;14.208;2023-05-10T00:14:48;97664.16;;;13.54;53.42
79481;BME280;68944;48.262;14.208;2023-05-10T00:17:14;97667.84;;;13.48;53.31
79481;BME280;68944;48.262;14.208;2023-05-10T00:19:39;97677.44;;;13.49;53.57
79481;BME280;68944;48.262;14.208;2023-05-10T00:22:05;97670.78;;;13.47;53.71
79481;BME280;68944;48.262;14.208;2023-05-10T00:24:30;97680.31;;;13.42;53.92
79481;BME280;68944;48.262;14.208;2023-05-10T00:26:56;97663.00;;;13.40;53.49
79481;BME280;68944;48.262;14.208;2023-05-10T00:29:21;97670.41;;;13.38;53.97
79481;BME280;68944;48.262;14.208;2023-05-10T00:31:46;97674.19;;;13.42;53.53
79481;BME280;68944;48.262;14.208;2023-05-10T00:34:12;97668.53;;;13.33;53.89
79481;BME280;68944;48.262;14.208;2023-05-10T00:36:37;97663.72;;;13.30;53.44
79481;BME280;68944;48.262;14.208;2023-05-10T00:39:03;97670.13;;;13.34;53.55
79481;BME280;68944;48.262;14.208;2023-05-10T00:41:29;97690.63;;;13.34;53.99
79481;BME280;68944;48.262;14.208;2023-05-10T00:43:58;97682.09;;;13.31;53.80
79481;BME280;68944;48.262;14.208;2023-05-10T00:46:24;97684.75;;;13.31;53.58
79481;BME280;68944;48.262;14.208;2023-05-10T00:48:51;97686.03;;;13.24;53.93
79481;BME280;68944;48.262;14.208;2023-05-10T00:51:18;97696.66;;;13.24;54.02
79481;BME280;68944;48.262;14.208;2023-05-10T00:53:46;97694.78;;;13.24;53.44
79481;BME280;68944;48.262;14.208;2023-05-10T00:56:12;97699.88;;;13.26;53.36
79481;BME280;68944;48.262;14.208;2023-05-10T00:58:39;97704.94;;;13.27;53.39
79481;BME280;68944;48.262;14.208;2023-05-10T01:01:05;97683.81;;;13.15;52.99
79481;BME280;68944;48.262;14.208;2023-05-10T01:03:32;97681.97;;;13.16;53.93
79481;BME280;68944;48.262;14.208;2023-05-10T01:05:57;97684.63;;;13.16;53.75
79481;BME280;68944;48.262;14.208;2023-05-10T01:08:24;97687.00;;;13.12;53.77
79481;BME280;68944;48.262;14.208;2023-05-10T01:10:50;97709.16;;;13.23;53.87
79481;BME280;68944;48.262;14.208;2023-05-10T01:15:55;97708.81;;;13.14;53.96
79481;BME280;68944;48.262;14.208;2023-05-10T01:18:21;97703.69;;;13.07;53.81
79481;BME280;68944;48.262;14.208;2023-05-10T01:20:48;97706.91;;;13.10;53.92
79481;BME280;68944;48.262;14.208;2023-05-10T01:23:39;97710.88;;;13.07;54.12
79481;BME280;68944;48.262;14.208;2023-05-10T01:29:18;97705.50;;;13.02;54.07
79481;BME280;68944;48.262;14.208;2023-05-10T01:34:39;97695.06;;;12.95;53.92
79481;BME280;68944;48.262;14.208;2023-05-10T01:37:13;97709.91;;;12.91;54.42
79481;BME280;68944;48.262;14.208;2023-05-10T01:43:00;97712.22;;;12.82;54.54
79481;BME280;68944;48.262;14.208;2023-05-10T01:48:10;97711.41;;;12.81;54.47
79481;BME280;68944;48.262;14.208;2023-05-10T01:50:40;97705.78;;;12.78;54.83
79481;BME280;68944;48.262;14.208;2023-05-10T01:53:08;97703.09;;;12.78;54.59
79481;BME280;68944;48.262;14.208;2023-05-10T01:55:41;97707.88;;;12.76;54.68
79481;BME280;68944;48.262;14.208;2023-05-10T01:58:17;97710.44;;;12.65;55.44
79481;BME280;68944;48.262;14.208;2023-05-10T02:00:44;97706.91;;;12.59;55.22
79481;BME280;68944;48.262;14.208;2023-05-10T02:03:11;97707.16;;;12.58;55.57
79481;BME280;68944;48.262;14.208;2023-05-10T02:05:38;97709.25;;;12.56;55.61
79481;BME280;68944;48.262;14.208;2023-05-10T02:08:06;97711.09;;;12.55;55.73
79481;BME280;68944;48.262;14.208;2023-05-10T02:10:34;97710.44;;;12.43;55.73
79481;BME280;68944;48.262;14.208;2023-05-10T02:13:01;97719.88;;;12.56;55.66
79481;BME280;68944;48.262;14.208;2023-05-10T02:15:28;97722.63;;;12.61;55.95
79481;BME280;68944;48.262;14.208;2023-05-10T02:17:55;97731.75;;;12.70;54.95
79481;BME280;68944;48.262;14.208;2023-05-10T02:20:23;97724.00;;;12.69;54.96
79481;BME280;68944;48.262;14.208;2023-05-10T02:22:51;97729.34;;;12.69;55.04
79481;BME280;68944;48.262;14.208;2023-05-10T02:25:19;97726.06;;;12.61;55.19
79481;BME280;68944;48.262;14.208;2023-05-10T02:27:46;97717.50;;;12.54;55.07
79481;BME280;68944;48.262;14.208;2023-05-10T02:30:13;97732.00;;;12.69;55.02
79481;BME280;68944;48.262;14.208;2023-05-10T02:32:39;97723.19;;;12.68;54.81
79481;BME280;68944;48.262;14.208;2023-05-10T02:35:06;97716.09;;;12.74;54.85
79481;BME280;68944;48.262;14.208;2023-05-10T02:37:32;97716.59;;;12.71;54.41
79481;BME280;68944;48.262;14.208;2023-05-10T02:39:59;97718.31;;;12.82;54.22
79481;BME280;68944;48.262;14.208;2023-05-10T02:42:27;97726.59;;;12.86;54.16
79481;BME280;68944;48.262;14.208;2023-05-10T02:44:56;97729.28;;;12.86;54.18
79481;BME280;68944;48.262;14.208;2023-05-10T02:47:24;97729.56;;;12.90;54.47
79481;BME280;68944;48.262;14.208;2023-05-10T02:49:49;97730.66;;;12.94;54.57
79481;BME280;68944;48.262;14.208;2023-05-10T02:52:21;97736.78;;;12.94;54.68
79481;BME280;68944;48.262;14.208;2023-05-10T02:54:50;97731.19;;;12.91;54.97
79481;BME280;68944;48.262;14.208;2023-05-10T02:57:16;97729.56;;;12.90;54.81
79481;BME280;68944;48.262;14.208;2023-05-10T02:59:45;97718.31;;;12.82;55.58
79481;BME280;68944;48.262;14.208;2023-05-10T03:02:14;97734.69;;;12.96;55.67
79481;BME280;68944;48.262;14.208;2023-05-10T03:04:39;97729.91;;;12.99;55.30
79481;BME280;68944;48.262;14.208;2023-05-10T03:07:05;97733.84;;;12.91;55.90
79481;BME280;68944;48.262;14.208;2023-05-10T03:09:32;97732.22;;;12.90;56.13
79481;BME280;68944;48.262;14.208;2023-05-10T03:12:23;97724.63;;;12.76;56.62
79481;BME280;68944;48.262;14.208;2023-05-10T03:17:38;97729.94;;;12.76;55.95
79481;BME280;68944;48.262;14.208;2023-05-10T03:20:09;97729.34;;;12.46;56.59
79481;BME280;68944;48.262;14.208;2023-05-10T03:22:39;97712.16;;;12.32;57.07
79481;BME280;68944;48.262;14.208;2023-05-10T03:25:07;97711.97;;;12.38;56.97
79481;BME280;68944;48.262;14.208;2023-05-10T03:27:39;97722.66;;;12.44;57.77
79481;BME280;68944;48.262;14.208;2023-05-10T03:30:08;97733.84;;;12.46;57.23
79481;BME280;68944;48.262;14.208;2023-05-10T03:32:34;97733.91;;;12.51;57.70
79481;BME280;68944;48.262;14.208;2023-05-10T03:35:00;97732.38;;;12.55;58.06
79481;BME280;68944;48.262;14.208;2023-05-10T03:37:27;97737.50;;;12.62;57.64
79481;BME280;68944;48.262;14.208;2023-05-10T03:39:53;97738.59;;;12.66;57.63
79481;BME280;68944;48.262;14.208;2023-05-10T03:42:18;97730.94;;;12.70;57.29
79481;BME280;68944;48.262;14.208;2023-05-10T03:44:44;97735.06;;;12.83;56.95
79481;BME280;68944;48.262;14.208;2023-05-10T03:47:09;97723.16;;;12.85;57.13
79481;BME280;68944;48.262;14.208;2023-05-10T03:49:35;97742.44;;;12.98;57.16
79481;BME280;68944;48.262;14.208;2023-05-10T03:52:01;97705.50;;;13.02;56.52
79481;BME280;68944;48.262;14.208;2023-05-10T03:54:26;97731.00;;;13.25;56.62
79481;BME280;68944;48.262;14.208;2023-05-10T03:56:52;97719.28;;;13.26;55.74
79481;BME280;68944;48.262;14.208;2023-05-10T03:59:19;97742.53;;;13.36;55.81
79481;BME280;68944;48.262;14.208;2023-05-10T04:01:44;97733.22;;;13.39;56.39
79481;BME280;68944;48.262;14.208;2023-05-10T04:04:10;97740.78;;;13.52;56.37
79481;BME280;68944;48.262;14.208;2023-05-10T04:06:35;97748.38;;;13.61;56.09
79481;BME280;68944;48.262;14.208;2023-05-10T04:09:01;97745.22;;;13.69;54.97
79481;BME280;68944;48.262;14.208;2023-05-10T04:11:29;97742.84;;;13.73;55.07
79481;BME280;68944;48.262;14.208;2023-05-10T04:13:55;97751.34;;;13.70;54.79
79481;BME280;68944;48.262;14.208;2023-05-10T04:16:20;97739.34;;;13.67;54.94
79481;BME280;68944;48.262;14.208;2023-05-10T04:18:46;97747.19;;;13.84;54.96
79481;BME280;68944;48.262;14.208;2023-05-10T04:21:12;97747.19;;;13.84;54.68
79481;BME280;68944;48.262;14.208;2023-05-10T04:23:38;97735.75;;;13.84;54.48
79481;BME280;68944;48.262;14.208;2023-05-10T04:26:04;97758.72;;;13.95;54.64
79481;BME280;68944;48.262;14.208;2023-05-10T04:28:29;97752.34;;;13.96;54.35
79481;BME280;68944;48.262;14.208;2023-05-10T04:31:06;97754.50;;;13.99;54.69
79481;BME280;68944;48.262;14.208;2023-05-10T04:33:32;97755.63;;;14.09;54.57
79481;BME280;68944;48.262;14.208;2023-05-10T04:35:58;97755.84;;;14.02;54.68
79481;BME280;68944;48.262;14.208;2023-05-10T04:38:23;97745.44;;;14.01;55.00
79481;BME280;68944;48.262;14.208;2023-05-10T04:40:49;97757.25;;;14.15;54.97
79481;BME280;68944;48.262;14.208;2023-05-10T04:43:15;97755.72;;;14.25;54.62
79481;BME280;68944;48.262;14.208;2023-05-10T04:45:40;97760.78;;;14.26;55.12
79481;BME280;68944;48.262;14.208;2023-05-10T04:48:06;97756.78;;;14.29;55.29
79481;BME280;68944;48.262;14.208;2023-05-10T04:50:32;97760.56;;;14.38;55.03
79481;BME280;68944;48.262;14.208;2023-05-10T04:52:58;97760.34;;;14.45;54.03
79481;BME280;68944;48.262;14.208;2023-05-10T04:55:24;97761.19;;;14.51;53.42
79481;BME280;68944;48.262;14.208;2023-05-10T04:57:49;97762.25;;;14.55;53.73
79481;BME280;68944;48.262;14.208;2023-05-10T05:00:15;97754.78;;;14.52;53.70
79481;BME280;68944;48.262;14.208;2023-05-10T05:02:45;97767.09;;;14.63;53.95
79481;BME280;68944;48.262;14.208;2023-05-10T05:05:13;97767.91;;;14.64;54.22
79481;BME280;68944;48.262;14.208;2023-05-10T05:07:39;97756.16;;;14.60;53.93
79481;BME280;68944;48.262;14.208;2023-05-10T05:10:06;97773.53;;;14.67;53.93
79481;BME280;68944;48.262;14.208;2023-05-10T05:12:32;97774.06;;;14.70;53.44
79481;BME280;68944;48.262;14.208;2023-05-10T05:14:57;97772.19;;;14.65;53.79
79481;BME280;68944;48.262;14.208;2023-05-10T05:17:23;97770.56;;;14.64;53.22
79481;BME280;68944;48.262;14.208;2023-05-10T05:19:48;97782.56;;;14.66;53.96
79481;BME280;68944;48.262;14.208;2023-05-10T05:22:14;97777.22;;;14.61;53.16
79481;BME280;68944;48.262;14.208;2023-05-10T05:24:39;97784.72;;;14.70;53.23
79481;BME280;68944;48.262;14.208;2023-05-10T05:27:05;97773.47;;;14.57;53.32
79481;BME280;68944;48.262;14.208;2023-05-10T05:29:31;97765.44;;;14.52;53.48
79481;BME280;68944;48.262;14.208;2023-05-10T05:31:56;97784.72;;;14.70;53.59
79481;BME280;68944;48.262;14.208;2023-05-10T05:34:22;97785.28;;;14.72;53.68
79481;BME280;68944;48.262;14.208;2023-05-10T05:36:48;97787.94;;;14.77;53.56
79481;BME280;68944;48.262;14.208;2023-05-10T05:39:13;97787.97;;;14.82;53.18
79481;BME280;68944;48.262;14.208;2023-05-10T05:41:39;97789.63;;;14.94;53.34
79481;BME280;68944;48.262;14.208;2023-05-10T05:44:05;97784.31;;;14.99;52.93
79481;BME280;68944;48.262;14.208;2023-05-10T05:46:30;97791.50;;;14.93;52.72
79481;BME280;68944;48.262;14.208;2023-05-10T05:48:56;97792.81;;;14.85;53.42
79481;BME280;68944;48.262;14.208;2023-05-10T05:51:21;97796.50;;;14.79;53.56
79481;BME280;68944;48.262;14.208;2023-05-10T05:53:47;97794.84;;;14.73;54.02
79481;BME280;68944;48.262;14.208;2023-05-10T05:56:12;97794.84;;;14.67;54.35
79481;BME280;68944;48.262;14.208;2023-05-10T05:58:38;97801.78;;;14.68;54.38
79481;BME280;68944;48.262;14.208;2023-05-10T06:01:03;97806.84;;;14.65;54.04
79481;BME280;68944;48.262;14.208;2023-05-10T06:03:29;97799.63;;;14.60;54.25
79481;BME280;68944;48.262;14.208;2023-05-10T06:05:54;97817.22;;;14.66;54.37
79481;BME280;68944;48.262;14.208;2023-05-10T06:08:20;97803.88;;;14.61;54.59
79481;BME280;68944;48.262;14.208;2023-05-10T06:10:46;97813.75;;;14.66;54.54
79481;BME280;68944;48.262;14.208;2023-05-10T06:13:11;97806.03;;;14.64;54.85
79481;BME280;68944;48.262;14.208;2023-05-10T06:15:37;97815.13;;;14.74;54.74
79481;BME280;68944;48.262;14.208;2023-05-10T06:18:03;97823.69;;;14.76;53.93
79481;BME280;68944;48.262;14.208;2023-05-10T06:20:28;97815.13;;;14.74;54.06
79481;BME280;68944;48.262;14.208;2023-05-10T06:22:54;97825.25;;;14.77;54.10
79481;BME280;68944;48.262;14.208;2023-05-10T06:25:19;97827.41;;;14.75;54.65
79481;BME280;68944;48.262;14.208;2023-05-10T06:27:45;97839.94;;;14.74;54.53
79481;BME280;68944;48.262;14.208;2023-05-10T06:30:11;97841.28;;;14.82;54.77
79481;BME280;68944;48.262;14.208;2023-05-10T06:32:38;97833.31;;;14.82;54.89
79481;BME280;68944;48.262;14.208;2023-05-10T06:35:04;97847.22;;;14.89;55.07
79481;BME280;68944;48.262;14.208;2023-05-10T06:37:29;97833.25;;;14.72;55.83
79481;BME280;68944;48.262;14.208;2023-05-10T06:39:55;97837.50;;;14.67;56.50
79481;BME280;68944;48.262;14.208;2023-05-10T06:42:21;97843.69;;;14.78;56.32
79481;BME280;68944;48.262;14.208;2023-05-10T06:44:46;97839.09;;;14.68;56.65
79481;BME280;68944;48.262;14.208;2023-05-10T06:47:12;97840.41;;;14.66;56.68
79481;BME280;68944;48.262;14.208;2023-05-10T06:49:37;97848.41;;;14.66;57.48
79481;BME280;68944;48.262;14.208;2023-05-10T06:52:03;97848.41;;;14.66;57.26
79481;BME280;68944;48.262;14.208;2023-05-10T06:54:28;97850.81;;;14.62;57.21
79481;BME280;68944;48.262;14.208;2023-05-10T06:56:53;97848.72;;;14.70;57.03
79481;BME280;68944;48.262;14.208;2023-05-10T06:59:19;97839.06;;;14.63;57.57
79481;BME280;68944;48.262;14.208;2023-05-10T07:01:46;97844.69;;;14.72;56.87
79481;BME280;68944;48.262;14.208;2023-05-10T07:04:12;97850.69;;;14.85;57.23
79481;BME280;68944;48.262;14.208;2023-05-10T07:06:38;97852.31;;;14.96;57.07
79481;BME280;68944;48.262;14.208;2023-05-10T07:09:03;97862.78;;;15.08;56.62
79481;BME280;68944;48.262;14.208;2023-05-10T07:11:29;97849.47;;;15.13;56.17
79481;BME280;68944;48.262;14.208;2023-05-10T07:13:54;97843.34;;;15.13;55.77
79481;BME280;68944;48.262;14.208;2023-05-10T07:16:19;97842.28;;;15.19;55.63
79481;BME280;68944;48.262;14.208;2023-05-10T07:18:46;97852.19;;;15.29;55.35
79481;BME280;68944;48.262;14.208;2023-05-10T07:21:12;97863.38;;;15.26;55.85
79481;BME280;68944;48.262;14.208;2023-05-10T07:23:37;97873.56;;;15.34;56.03
79481;BME280;68944;48.262;14.208;2023-05-10T07:26:03;97867.19;;;15.46;56.15
79481;BME280;68944;48.262;14.208;2023-05-10T07:28:28;97852.25;;;15.55;55.94
79481;BME280;68944;48.262;14.208;2023-05-10T07:30:54;97861.38;;;15.65;55.61
79481;BME280;68944;48.262;14.208;2023-05-10T07:33:19;97871.78;;;15.66;55.84
79481;BME280;68944;48.262;14.208;2023-05-10T07:35:45;97860.81;;;15.68;55.89
79481;BME280;68944;48.262;14.208;2023-05-10T07:38:10;97872.06;;;15.80;55.61
79481;BME280;68944;48.262;14.208;2023-05-10T07:40:36;97868.81;;;15.63;55.61
79481;BME280;68944;48.262;14.208;2023-05-10T07:43:02;97873.34;;;15.57;56.19
79481;BME280;68944;48.262;14.208;2023-05-10T07:45:28;97876.81;;;15.52;55.96
79481;BME280;68944;48.262;14.208;2023-05-10T07:47:53;97875.19;;;15.51;55.69
79481;BME280;68944;48.262;14.208;2023-05-10T07:50:19;97870.09;;;15.34;56.48
79481;BME280;68944;48.262;14.208;2023-05-10T07:52:46;97870.28;;;15.17;57.84
79481;BME280;68944;48.262;14.208;2023-05-10T07:55:12;97872.41;;;15.15;57.86
79481;BME280;68944;48.262;14.208;2023-05-10T07:57:38;97870.56;;;15.20;58.13
79481;BME280;68944;48.262;14.208;2023-05-10T08:00:03;97862.56;;;15.20;57.98
79481;BME280;68944;48.262;14.208;2023-05-10T08:02:38;97863.31;;;15.10;58.66
79481;BME280;68944;48.262;14.208;2023-05-10T08:05:04;97877.19;;;15.12;59.28
79481;BME280;68944;48.262;14.208;2023-05-10T08:07:30;97877.75;;;15.15;58.77
79481;BME280;68944;48.262;14.208;2023-05-10T08:09:56;97880.66;;;15.08;59.08
79481;BME280;68944;48.262;14.208;2023-05-10T08:12:21;97873.66;;;14.96;59.60
79481;BME280;68944;48.262;14.208;2023-05-10T08:14:47;97889.47;;;15.08;59.95
79481;BME280;68944;48.262;14.208;2023-05-10T08:17:12;97883.28;;;14.97;60.19
79481;BME280;68944;48.262;14.208;2023-05-10T08:19:38;97879.16;;;14.84;60.77
79481;BME280;68944;48.262;14.208;2023-05-10T08:22:03;97881.84;;;14.79;61.03
79481;BME280;68944;48.262;14.208;2023-05-10T08:24:29;97898.38;;;14.81;61.75
79481;BME280;68944;48.262;14.208;2023-05-10T08:26:54;97883.91;;;14.72;61.53
79481;BME280;68944;48.262;14.208;2023-05-10T08:29:20;97886.03;;;14.70;61.87
79481;BME280;68944;48.262;14.208;2023-05-10T08:31:45;97889.56;;;14.81;62.12
79481;BME280;68944;48.262;14.208;2023-05-10T08:34:11;97889.09;;;14.89;61.71
79481;BME280;68944;48.262;14.208;2023-05-10T08:36:36;97902.28;;;15.11;62.01
79481;BME280;68944;48.262;14.208;2023-05-10T08:39:02;97912.50;;;15.35;62.36
79481;BME280;68944;48.262;14.208;2023-05-10T08:41:28;97909.91;;;15.46;62.60
79481;BME280;68944;48.262;14.208;2023-05-10T08:43:55;97905.66;;;15.61;62.97
79481;BME280;68944;48.262;14.208;2023-05-10T08:46:21;97905.13;;;15.64;62.87
79481;BME280;68944;48.262;14.208;2023-05-10T08:48:49;97899.84;;;15.95;62.68
79481;BME280;68944;48.262;14.208;2023-05-10T08:51:19;97903.38;;;16.22;62.87
79481;BME280;68944;48.262;14.208;2023-05-10T08:53:45;97914.84;;;16.33;62.80
79481;BME280;68944;48.262;14.208;2023-05-10T08:56:11;97901.50;;;16.43;62.52
79481;BME280;68944;48.262;14.208;2023-05-10T08:58:37;97908.97;;;16.62;62.29
79481;BME280;68944;48.262;14.208;2023-05-10T09:01:03;97910.03;;;16.66;61.66
79481;BME280;68944;48.262;14.208;2023-05-10T09:03:30;97904.69;;;16.61;60.95
79481;BME280;68944;48.262;14.208;2023-05-10T09:05:56;97914.31;;;16.57;60.87
79481;BME280;68944;48.262;14.208;2023-05-10T09:08:23;97919.94;;;16.45;61.06
79481;BME280;68944;48.262;14.208;2023-05-10T09:10:51;97927.41;;;16.58;61.13
79481;BME280;68944;48.262;14.208;2023-05-10T09:13:16;97919.38;;;16.64;61.05
79481;BME280;68944;48.262;14.208;2023-05-10T09:15:44;97930.09;;;16.69;60.84
79481;BME280;68944;48.262;14.208;2023-05-10T09:18:10;97922.81;;;16.95;60.35
79481;BME280;68944;48.262;14.208;2023-05-10T09:20:36;97929.22;;;17.15;59.69
79481;BME280;68944;48.262;14.208;2023-05-10T09:23:01;97928.63;;;17.24;59.21
79481;BME280;68944;48.262;14.208;2023-05-10T09:25:26;97926.91;;;17.54;57.94
79481;BME280;68944;48.262;14.208;2023-05-10T09:27:52;97928.78;;;17.54;58.75
79481;BME280;68944;48.262;14.208;2023-05-10T09:30:28;97923.66;;;17.62;59.08
79481;BME280;68944;48.262;14.208;2023-05-10T09:32:56;97932.16;;;17.75;57.91
79481;BME280;68944;48.262;14.208;2023-05-10T09:35:26;97926.53;;;17.71;58.65
79481;BME280;68944;48.262;14.208;2023-05-10T09:37:54;97920.72;;;17.64;58.76
79481;BME280;68944;48.262;14.208;2023-05-10T09:40:25;97927.38;;;17.67;58.49
79481;BME280;68944;48.262;14.208;2023-05-10T09:45:25;97918.25;;;17.68;58.43
79481;BME280;68944;48.262;14.208;2023-05-10T09:47:51;97919.06;;;17.68;58.17
79481;BME280;68944;48.262;14.208;2023-05-10T09:50:17;97925.00;;;17.60;57.97
79481;BME280;68944;48.262;14.208;2023-05-10T09:52:52;97931.38;;;17.69;57.84
79481;BME280;68944;48.262;14.208;2023-05-10T09:55:22;97923.34;;;17.69;58.31
79481;BME280;68944;48.262;14.208;2023-05-10T09:57:49;97921.78;;;17.63;58.18
79481;BME280;68944;48.262;14.208;2023-05-10T10:00:23;97927.94;;;17.63;58.20
79481;BME280;68944;48.262;14.208;2023-05-10T10:02:56;97918.28;;;17.62;58.27
79481;BME280;68944;48.262;14.208;2023-05-10T10:05:29;97914.22;;;17.20;59.26
79481;BME280;68944;48.262;14.208;2023-05-10T10:07:57;97925.19;;;17.08;59.68
79481;BME280;68944;48.262;14.208;2023-05-10T10:10:24;97919.59;;;17.04;59.67
79481;BME280;68944;48.262;14.208;2023-05-10T10:12:51;97906.19;;;17.14;59.68
79481;BME280;68944;48.262;14.208;2023-05-10T10:15:16;97908.88;;;17.14;60.32
79481;BME280;68944;48.262;14.208;2023-05-10T10:17:43;97918.75;;;17.19;59.93
79481;BME280;68944;48.262;14.208;2023-05-10T10:20:09;97920.59;;;17.13;60.35
79481;BME280;68944;48.262;14.208;2023-05-10T10:22:34;97915.28;;;17.08;60.63
79481;BME280;68944;48.262;14.208;2023-05-10T10:25:01;97916.91;;;17.04;61.01
79481;BME280;68944;48.262;14.208;2023-05-10T10:35:19;97926.56;;;16.89;62.03
79481;BME280;68944;48.262;14.208;2023-05-10T10:37:46;97920.16;;;16.85;62.43
79481;BME280;68944;48.262;14.208;2023-05-10T10:40:33;97898.25;;;16.72;62.86
79481;BME280;68944;48.262;14.208;2023-05-10T10:48:38;97912.66;;;16.92;64.18
79481;BME280;68944;48.262;14.208;2023-05-10T10:51:04;97915.56;;;17.01;63.99
79481;BME280;68944;48.262;14.208;2023-05-10T10:53:30;97911.78;;;17.18;63.96
79481;BME280;68944;48.262;14.208;2023-05-10T10:56:12;97911.22;;;17.32;63.73
79481;BME280;68944;48.262;14.208;2023-05-10T10:58:40;97913.59;;;17.38;63.26
79481;BME280;68944;48.262;14.208;2023-05-10T11:01:17;97916.50;;;17.42;63.10
79481;BME280;68944;48.262;14.208;2023-05-10T11:06:34;97915.16;;;17.50;63.26
79481;BME280;68944;48.262;14.208;2023-05-10T11:09:11;97915.88;;;17.66;62.92
79481;BME280;68944;48.262;14.208;2023-05-10T11:11:52;97915.22;;;17.85;62.31
79481;BME280;68944;48.262;14.208;2023-05-10T11:14:21;97895.69;;;17.79;62.21
79481;BME280;68944;48.262;14.208;2023-05-10T11:16:50;97915.44;;;17.94;62.18
79481;BME280;68944;48.262;14.208;2023-05-10T11:19:17;97899.31;;;17.99;61.75
79481;BME280;68944;48.262;14.208;2023-05-10T11:21:50;97911.66;;;17.95;61.90
79481;BME280;68944;48.262;14.208;2023-05-10T11:24:21;97918.63;;;18.01;61.69
79481;BME280;68944;48.262;14.208;2023-05-10T11:26:49;97899.31;;;17.99;62.20
79481;BME280;68944;48.262;14.208;2023-05-10T11:29:16;97913.66;;;18.24;61.61
79481;BME280;68944;48.262;14.208;2023-05-10T11:31:43;97922.25;;;18.16;61.37
79481;BME280;68944;48.262;14.208;2023-05-10T11:34:09;97903.06;;;18.03;62.00
79481;BME280;68944;48.262;14.208;2023-05-10T11:36:36;97926.38;;;18.03;62.41
79481;BME280;68944;48.262;14.208;2023-05-10T11:39:02;97912.78;;;17.89;62.75
79481;BME280;68944;48.262;14.208;2023-05-10T11:41:29;97909.91;;;17.74;63.44
79481;BME280;68944;48.262;14.208;2023-05-10T11:43:56;97917.09;;;17.84;63.21
79481;BME280;68944;48.262;14.208;2023-05-10T11:46:26;97916.38;;;17.73;63.39
79481;BME280;68944;48.262;14.208;2023-05-10T11:48:55;97917.84;;;17.50;63.12
79481;BME280;68944;48.262;14.208;2023-05-10T11:51:24;97925.16;;;17.79;62.72
79481;BME280;68944;48.262;14.208;2023-05-10T11:53:52;97896.78;;;17.78;62.60
79481;BME280;68944;48.262;14.208;2023-05-10T11:56:18;97905.72;;;18.03;62.35
79481;BME280;68944;48.262;14.208;2023-05-10T11:58:44;97907.91;;;17.96;62.75
79481;BME280;68944;48.262;14.208;2023-05-10T12:01:10;97922.88;;;18.02;63.11
79481;BME280;68944;48.262;14.208;2023-05-10T12:03:36;97901.06;;;17.74;63.12
79481;BME280;68944;48.262;14.208;2023-05-10T12:06:03;97924.97;;;17.65;62.96
79481;BME280;68944;48.262;14.208;2023-05-10T12:08:29;97911.66;;;17.49;63.88
79481;BME280;68944;48.262;14.208;2023-05-10T12:11:07;97926.38;;;17.52;64.26
79481;BME280;68944;48.262;14.208;2023-05-10T12:13:38;97929.06;;;17.52;64.57
79481;BME280;68944;48.262;14.208;2023-05-10T12:16:26;97918.88;;;17.54;64.86
79481;BME280;68944;48.262;14.208;2023-05-10T12:18:56;97927.44;;;17.56;64.38
79481;BME280;68944;48.262;14.208;2023-05-10T12:21:23;97921.00;;;17.57;65.04
79481;BME280;68944;48.262;14.208;2023-05-10T12:23:53;97922.78;;;17.72;65.15
79481;BME280;68944;48.262;14.208;2023-05-10T12:26:22;97925.44;;;17.78;64.98
79481;BME280;68944;48.262;14.208;2023-05-10T12:28:48;97910.78;;;17.65;65.18
79481;BME280;68944;48.262;14.208;2023-05-10T12:31:13;97924.66;;;17.72;65.05
79481;BME280;68944;48.262;14.208;2023-05-10T12:33:41;97922.56;;;17.69;65.15
79481;BME280;68944;48.262;14.208;2023-05-10T12:36:09;97925.03;;;17.55;65.74
79481;BME280;68944;48.262;14.208;2023-05-10T12:38:39;97928.06;;;17.37;66.16
79481;BME280;68944;48.262;14.208;2023-05-10T12:41:09;97931.84;;;17.31;66.46
79481;BME280;68944;48.262;14.208;2023-05-10T12:43:36;97930.22;;;17.30;66.99
79481;BME280;68944;48.262;14.208;2023-05-10T12:46:10;97929.41;;;17.29;66.79
79481;BME280;68944;48.262;14.208;2023-05-10T12:48:36;97929.66;;;17.38;67.15
79481;BME280;68944;48.262;14.208;2023-05-10T12:51:03;97937.94;;;17.47;66.96
79481;BME280;68944;48.262;14.208;2023-05-10T12:53:29;97926.94;;;17.49;66.77
79481;BME280;68944;48.262;14.208;2023-05-10T12:55:55;97925.34;;;17.48;66.89
79481;BME280;68944;48.262;14.208;2023-05-10T12:58:21;97925.88;;;17.45;67.02
79481;BME280;68944;48.262;14.208;2023-05-10T13:00:46;97930.16;;;17.46;67.50
79481;BME280;68944;48.262;14.208;2023-05-10T13:03:12;97925.91;;;17.34;67.77
79481;BME280;68944;48.262;14.208;2023-05-10T13:05:38;97927.53;;;17.35;67.38
79481;BME280;68944;48.262;14.208;2023-05-10T13:08:04;97927.22;;;17.47;66.82
79481;BME280;68944;48.262;14.208;2023-05-10T13:10:30;97927.19;;;17.53;66.82
79481;BME280;68944;48.262;14.208;2023-05-10T13:12:59;97928.75;;;17.64;66.64
79481;BME280;68944;48.262;14.208;2023-05-10T13:15:25;97922.38;;;17.55;67.07
79481;BME280;68944;48.262;14.208;2023-05-10T13:17:53;97908.16;;;17.59;67.20
79481;BME280;68944;48.262;14.208;2023-05-10T13:20:19;97923.84;;;17.71;66.95
79481;BME280;68944;48.262;14.208;2023-05-10T13:22:45;97923.50;;;17.89;66.61
79481;BME280;68944;48.262;14.208;2023-05-10T13:25:11;97930.94;;;17.97;66.33